createdAt,value
2023-04-17T00:00:06.172Z,3.88
2023-04-17T00:02:33.433Z,4.38
2023-04-17T00:05:01.259Z,4.40
2023-04-17T00:07:28.520Z,4.53
2023-04-17T00:09:55.634Z,4.05
2023-04-17T00:12:22.808Z,4.10
2023-04-17T00:14:49.942Z,3.20
2023-04-17T00:17:17.133Z,3.33
2023-04-17T00:19:59.783Z,3.70
2023-04-17T00:22:26.970Z,3.70
2023-04-17T00:24:54.030Z,3.60
2023-04-17T00:27:21.230Z,3.55
2023-04-17T00:29:48.387Z,3.63
2023-04-17T00:33:24.754Z,3.35
2023-04-17T00:35:52.283Z,3.70
2023-04-17T00:38:19.416Z,3.65
2023-04-17T00:40:46.731Z,3.42
2023-04-17T00:43:13.848Z,3.33
2023-04-17T00:45:41.837Z,3.95
2023-04-17T00:48:09.890Z,4.55
2023-04-17T00:50:37.538Z,3.75
2023-04-17T00:53:04.954Z,3.15
2023-04-17T00:55:34.948Z,3.13
2023-04-17T00:58:02.607Z,3.03
2023-04-17T01:00:29.785Z,3.72
2023-04-17T01:03:00.256Z,3.53
2023-04-17T01:05:28.137Z,3.20
2023-04-17T01:08:28.069Z,3.40
2023-04-17T01:10:55.328Z,3.00
2023-04-17T01:13:22.891Z,3.40
2023-04-17T01:15:52.127Z,3.13
2023-04-17T01:18:19.305Z,3.22
2023-04-17T01:20:46.445Z,2.90
2023-04-17T01:23:13.885Z,3.15
2023-04-17T01:25:41.417Z,3.47
2023-04-17T01:28:09.312Z,2.90
2023-04-17T01:30:37.855Z,3.28
2023-04-17T01:33:08.053Z,2.80
2023-04-17T01:35:35.496Z,2.20
2023-04-17T01:38:02.867Z,2.50
2023-04-17T01:40:30.007Z,2.60
2023-04-17T01:42:58.144Z,2.65
2023-04-17T01:45:25.581Z,4.03
2023-04-17T01:47:52.826Z,4.72
2023-04-17T01:50:20.203Z,5.15
2023-04-17T01:52:47.715Z,4.60
2023-04-17T01:55:14.869Z,4.72
2023-04-17T01:57:42.558Z,5.07
2023-04-17T02:00:41.815Z,4.95
2023-04-17T02:03:09.272Z,6.15
2023-04-17T02:05:36.558Z,5.78
2023-04-17T02:08:05.940Z,6.13
2023-04-17T02:10:33.396Z,5.90
2023-04-17T02:13:00.491Z,5.85
2023-04-17T02:15:27.587Z,4.72
2023-04-17T02:17:54.777Z,5.05
2023-04-17T02:20:21.994Z,5.60
2023-04-17T02:22:49.157Z,8.82
2023-04-17T02:25:16.413Z,14.82
2023-04-17T02:27:43.581Z,9.90
2023-04-17T02:30:11.475Z,12.65
2023-04-17T02:32:41.342Z,12.88
2023-04-17T02:35:09.031Z,17.60
2023-04-17T02:37:36.375Z,15.77
2023-04-17T02:40:07.331Z,14.23
2023-04-17T02:42:34.467Z,13.30
2023-04-17T02:45:04.580Z,12.88
2023-04-17T02:47:31.763Z,13.05
2023-04-17T02:50:00.781Z,14.30
2023-04-17T02:52:28.860Z,14.82
2023-04-17T02:56:04.290Z,12.75
2023-04-17T02:58:33.756Z,11.07
2023-04-17T03:01:03.006Z,9.70
2023-04-17T03:03:35.436Z,10.02
2023-04-17T03:06:07.062Z,9.85
2023-04-17T03:08:35.860Z,8.43
2023-04-17T03:11:03.589Z,7.15
2023-04-17T03:13:31.524Z,6.90
2023-04-17T03:15:59.291Z,7.30
2023-04-17T03:18:27.288Z,7.53
2023-04-17T03:20:54.541Z,7.22
2023-04-17T03:23:21.782Z,6.25
2023-04-17T03:25:49.133Z,4.40
2023-04-17T03:28:17.279Z,5.05
2023-04-17T03:30:44.780Z,6.35
2023-04-17T03:33:11.942Z,8.85
2023-04-17T03:35:39.182Z,8.23
2023-04-17T03:38:09.294Z,6.88
2023-04-17T03:40:36.564Z,7.32
2023-04-17T03:43:04.972Z,8.18
2023-04-17T03:45:33.114Z,7.35
2023-04-17T03:48:01.610Z,7.18
2023-04-17T03:50:29.425Z,7.45
2023-04-17T03:52:57.622Z,7.30
2023-04-17T03:55:27.292Z,7.45
2023-04-17T03:57:55.158Z,7.65
2023-04-17T04:00:24.090Z,7.85
2023-04-17T04:02:56.556Z,7.25
2023-04-17T04:05:28.239Z,6.88
2023-04-17T04:07:56.538Z,7.50
2023-04-17T04:10:33.778Z,5.90
2023-04-17T04:13:01.043Z,6.70
2023-04-17T04:15:28.945Z,7.85
2023-04-17T04:18:31.981Z,7.15
2023-04-17T04:20:59.305Z,6.25
2023-04-17T04:23:31.122Z,5.10
2023-04-17T04:26:01.917Z,4.95
2023-04-17T04:28:38.403Z,5.45
2023-04-17T04:31:42.329Z,5.22
2023-04-17T04:34:10.458Z,4.88
2023-04-17T04:36:42.105Z,4.45
2023-04-17T04:39:21.964Z,4.30
2023-04-17T04:41:53.145Z,4.60
2023-04-17T04:44:24.189Z,4.10
2023-04-17T04:46:55.837Z,4.32
2023-04-17T04:49:23.434Z,3.58
2023-04-17T04:51:51.448Z,3.47
2023-04-17T04:54:18.737Z,3.40
2023-04-17T04:56:57.096Z,3.03
2023-04-17T04:59:24.410Z,3.28
2023-04-17T05:02:01.571Z,3.28
2023-04-17T05:04:28.876Z,2.72
2023-04-17T05:07:00.067Z,3.08
2023-04-17T05:09:27.820Z,2.90
2023-04-17T05:11:57.225Z,3.40
2023-04-17T05:14:24.652Z,3.95
2023-04-17T05:16:51.764Z,3.83
2023-04-17T05:19:19.430Z,3.05
2023-04-17T05:21:57.615Z,3.47
2023-04-17T05:24:25.087Z,3.60
2023-04-17T05:26:53.644Z,3.90
2023-04-17T05:30:29.288Z,3.38
2023-04-17T05:33:08.521Z,3.35
2023-04-17T05:35:47.422Z,3.85
2023-04-17T05:38:14.620Z,3.80
2023-04-17T05:40:41.775Z,4.28
2023-04-17T05:43:10.689Z,4.93
2023-04-17T05:45:39.173Z,4.35
2023-04-17T05:48:09.057Z,3.80
2023-04-17T05:50:37.598Z,4.82
2023-04-17T05:53:06.592Z,6.00
2023-04-17T05:55:43.818Z,5.05
2023-04-17T06:00:43.266Z,3.90
2023-04-17T06:03:18.563Z,3.90
2023-04-17T06:05:47.581Z,4.53
2023-04-17T06:08:14.720Z,4.00
2023-04-17T06:10:41.887Z,3.60
2023-04-17T06:13:09.327Z,3.28
2023-04-17T06:15:36.736Z,3.60
2023-04-17T06:18:04.023Z,3.90
2023-04-17T06:20:31.167Z,4.10
2023-04-17T06:22:58.318Z,4.13
2023-04-17T06:25:25.580Z,4.35
2023-04-17T06:27:52.913Z,3.38
2023-04-17T06:30:20.194Z,3.42
2023-04-17T06:32:50.817Z,4.22
2023-04-17T06:35:20.135Z,4.03
2023-04-17T06:37:55.712Z,5.70
2023-04-17T06:40:23.112Z,4.93
2023-04-17T06:42:51.717Z,5.50
2023-04-17T06:45:21.443Z,6.05
2023-04-17T06:47:48.580Z,6.65
2023-04-17T06:50:19.104Z,4.82
2023-04-17T06:52:46.310Z,5.15
2023-04-17T06:55:13.378Z,4.20
2023-04-17T06:57:40.484Z,4.18
2023-04-17T07:00:08.148Z,3.95
2023-04-17T07:02:35.318Z,4.38
2023-04-17T07:05:05.569Z,3.58
2023-04-17T07:07:34.567Z,3.97
2023-04-17T07:10:01.947Z,3.58
2023-04-17T07:12:28.998Z,3.33
2023-04-17T07:14:56.227Z,3.47
2023-04-17T07:17:23.541Z,3.00
2023-04-17T07:19:50.730Z,3.45
2023-04-17T07:22:18.160Z,3.55
2023-04-17T07:24:45.350Z,3.83
2023-04-17T07:27:12.427Z,3.45
2023-04-17T07:29:39.501Z,3.40
2023-04-17T07:32:07.123Z,3.00
2023-04-17T07:34:34.667Z,3.15
2023-04-17T07:37:01.887Z,2.70
2023-04-17T07:39:31.740Z,3.10
2023-04-17T07:41:58.912Z,2.88
2023-04-17T07:44:25.961Z,2.72
2023-04-17T07:46:53.109Z,2.70
2023-04-17T07:49:20.207Z,2.55
2023-04-17T07:51:47.314Z,3.08
2023-04-17T07:54:14.385Z,3.17
2023-04-17T07:56:41.510Z,2.97
2023-04-17T07:59:08.603Z,2.78
2023-04-17T08:01:35.700Z,2.60
2023-04-17T08:04:03.610Z,2.22
2023-04-17T08:06:31.325Z,2.92
2023-04-17T08:09:00.007Z,2.53
2023-04-17T08:11:27.155Z,2.35
2023-04-17T08:13:57.543Z,2.50
2023-04-17T08:16:24.756Z,2.80
2023-04-17T08:18:51.863Z,2.40
2023-04-17T08:21:19.014Z,2.88
2023-04-17T08:23:46.155Z,3.17
2023-04-17T08:26:13.255Z,2.22
2023-04-17T08:28:40.391Z,2.30
2023-04-17T08:31:08.935Z,3.40
2023-04-17T08:33:36.477Z,2.63
2023-04-17T08:36:04.732Z,2.70
2023-04-17T08:38:33.053Z,2.00
2023-04-17T08:41:06.029Z,1.77
2023-04-17T08:43:36.024Z,1.92
2023-04-17T08:46:03.662Z,2.25
2023-04-17T08:48:31.666Z,2.13
2023-04-17T08:50:58.838Z,2.72
2023-04-17T08:53:26.036Z,2.10
2023-04-17T08:55:53.248Z,2.05
2023-04-17T08:58:22.143Z,2.40
2023-04-17T09:00:49.603Z,2.60
2023-04-17T09:03:16.984Z,2.45
2023-04-17T09:05:46.818Z,3.00
2023-04-17T09:08:17.979Z,2.50
2023-04-17T09:10:49.955Z,2.78
2023-04-17T09:13:20.511Z,2.25
2023-04-17T09:16:03.803Z,2.42
2023-04-17T09:18:32.457Z,2.20
2023-04-17T09:21:03.918Z,2.10
2023-04-17T09:23:45.548Z,2.10
2023-04-17T09:26:14.542Z,1.90
2023-04-17T09:28:43.840Z,2.00
2023-04-17T09:31:19.862Z,2.65
2023-04-17T09:34:02.079Z,2.47
2023-04-17T09:36:31.210Z,1.73
2023-04-17T09:39:01.210Z,1.40
2023-04-17T09:41:30.644Z,1.70
2023-04-17T09:44:05.726Z,2.08
2023-04-17T10:17:28.983Z,0.70
2023-04-17T10:19:56.758Z,1.00
2023-04-17T10:22:24.490Z,1.40
2023-04-17T10:25:10.539Z,1.52
2023-04-17T10:27:37.621Z,1.30
2023-04-17T10:30:07.468Z,1.60
2023-04-17T10:32:34.615Z,1.58
2023-04-17T10:35:22.789Z,1.75
2023-04-17T10:37:52.626Z,2.20
2023-04-17T10:40:29.890Z,2.10
2023-04-17T10:43:03.385Z,2.03
2023-04-17T10:45:55.113Z,2.15
2023-04-17T10:48:23.200Z,2.00
2023-04-17T10:50:50.349Z,1.80
2023-04-17T10:53:40.529Z,2.38
2023-04-17T10:56:09.632Z,2.42
2023-04-17T10:58:56.916Z,2.15
2023-04-17T11:01:31.833Z,1.63
2023-04-17T11:04:02.250Z,2.17
2023-04-17T11:06:31.791Z,2.03
2023-04-17T11:09:00.539Z,2.00
2023-04-17T11:11:40.482Z,2.28
2023-04-17T11:14:14.776Z,2.85
2023-04-17T11:16:44.366Z,2.15
2023-04-17T11:19:17.167Z,2.15
2023-04-17T11:21:45.480Z,2.22
2023-04-17T11:24:12.584Z,2.22
2023-04-17T11:26:46.925Z,1.98
2023-04-17T11:29:18.608Z,2.40
2023-04-17T11:31:47.077Z,2.13
2023-04-17T11:34:16.067Z,2.28
2023-04-17T11:37:00.182Z,2.10
2023-04-17T11:39:30.229Z,2.47
2023-04-17T11:45:11.789Z,2.65
2023-04-17T11:47:38.954Z,2.60
2023-04-17T11:50:06.695Z,3.05
2023-04-17T11:53:06.300Z,2.92
2023-04-17T11:55:35.740Z,2.55
2023-04-17T11:58:07.501Z,2.83
2023-04-17T12:00:35.566Z,2.60
2023-04-17T12:03:36.334Z,2.92
2023-04-17T12:06:06.588Z,2.67
2023-04-17T12:08:53.682Z,2.80
2023-04-17T12:13:54.054Z,3.67
2023-04-17T12:16:22.637Z,2.90
2023-04-17T12:18:49.868Z,3.03
2023-04-17T12:21:17.294Z,3.92
2023-04-17T12:23:44.445Z,4.07
2023-04-17T12:26:11.645Z,3.22
2023-04-17T12:28:39.152Z,3.55
2023-04-17T12:31:06.669Z,4.38
2023-04-17T12:33:34.211Z,3.90
2023-04-17T12:36:02.899Z,3.50
2023-04-17T12:38:30.661Z,3.35
2023-04-17T12:40:58.013Z,4.47
2023-04-17T12:43:25.075Z,3.30
2023-04-17T12:45:55.200Z,3.53
2023-04-17T12:48:22.450Z,3.92
2023-04-17T12:50:49.808Z,4.22
2023-04-17T12:53:17.038Z,3.88
2023-04-17T12:55:44.545Z,4.00
2023-04-17T12:58:13.440Z,4.28
2023-04-17T13:00:44.414Z,4.38
2023-04-17T13:03:44.259Z,3.60
2023-04-17T13:06:11.503Z,3.35
2023-04-17T13:08:39.285Z,3.88
2023-04-17T13:11:06.528Z,4.18
2023-04-17T13:13:33.650Z,3.92
2023-04-17T13:16:01.013Z,3.72
2023-04-17T13:18:28.161Z,3.15
2023-04-17T13:20:56.150Z,3.55
2023-04-17T13:23:23.212Z,3.85
2023-04-17T13:25:50.792Z,3.80
2023-04-17T13:28:17.963Z,4.20
2023-04-17T13:30:45.133Z,3.80
2023-04-17T13:33:12.795Z,3.90
2023-04-17T13:35:39.894Z,3.88
2023-04-17T13:38:07.151Z,3.95
2023-04-17T13:40:34.223Z,4.05
2023-04-17T13:43:01.580Z,4.47
2023-04-17T13:45:28.754Z,4.60
2023-04-17T13:47:56.188Z,4.50
2023-04-17T13:50:23.349Z,4.10
2023-04-17T13:52:50.437Z,5.18
2023-04-17T13:55:17.743Z,4.50
2023-04-17T13:57:44.882Z,4.15
2023-04-17T14:00:12.703Z,3.80
2023-04-17T14:02:40.432Z,3.92
2023-04-17T14:05:08.112Z,4.45
2023-04-17T14:07:35.434Z,4.28
2023-04-17T14:10:02.703Z,3.70
2023-04-17T14:12:29.976Z,4.63
2023-04-17T14:14:58.204Z,3.80
2023-04-17T14:17:25.730Z,4.22
2023-04-17T14:19:53.189Z,4.05
2023-04-17T14:22:20.407Z,4.00
2023-04-17T14:24:47.539Z,3.72
2023-04-17T14:27:14.669Z,2.83
2023-04-17T14:29:41.799Z,3.28
2023-04-17T14:32:09.004Z,3.78
2023-04-17T14:34:36.119Z,3.92
2023-04-17T14:37:03.232Z,3.63
2023-04-17T14:39:31.484Z,3.15
2023-04-17T14:42:01.232Z,3.40
2023-04-17T14:44:29.213Z,3.40
2023-04-17T14:46:57.161Z,3.67
2023-04-17T14:49:24.410Z,3.60
2023-04-17T14:51:51.858Z,4.20
2023-04-17T14:54:19.028Z,3.65
2023-04-17T14:56:46.162Z,3.33
2023-04-17T14:59:13.946Z,3.85
2023-04-17T15:01:41.376Z,3.80
2023-04-17T15:04:08.675Z,4.00
2023-04-17T15:06:36.422Z,3.40
2023-04-17T15:09:03.675Z,3.67
2023-04-17T15:11:31.034Z,3.28
2023-04-17T15:13:58.124Z,4.28
2023-04-17T15:16:25.307Z,3.88
2023-04-17T15:18:52.486Z,4.35
2023-04-17T15:21:20.115Z,3.65
2023-04-17T15:23:47.161Z,3.72
2023-04-17T15:26:14.514Z,4.13
2023-04-17T15:28:41.667Z,4.28
2023-04-17T15:31:09.045Z,3.25
2023-04-17T15:33:37.569Z,3.40
2023-04-17T15:36:05.084Z,4.13
2023-04-17T15:38:32.334Z,4.70
2023-04-17T15:40:59.527Z,3.80
2023-04-17T15:43:27.155Z,4.15
2023-04-17T15:45:54.943Z,4.13
2023-04-17T15:48:22.039Z,3.00
2023-04-17T15:50:49.157Z,3.75
2023-04-17T15:54:25.705Z,3.80
2023-04-17T15:56:53.192Z,3.13
2023-04-17T15:59:20.340Z,3.00
2023-04-17T16:01:48.323Z,3.38
2023-04-17T16:04:15.716Z,3.80
2023-04-17T16:06:42.879Z,3.65
2023-04-17T16:09:10.468Z,4.18
2023-04-17T16:11:37.643Z,4.18
2023-04-17T16:14:04.771Z,3.97
2023-04-17T16:16:31.951Z,3.17
2023-04-17T16:18:59.096Z,2.85
2023-04-17T16:21:26.940Z,3.30
2023-04-17T16:23:54.061Z,2.50
2023-04-17T16:26:22.442Z,3.33
2023-04-17T16:28:49.506Z,3.75
2023-04-17T16:31:17.400Z,2.88
2023-04-17T16:33:44.607Z,3.50
2023-04-17T16:36:11.842Z,3.30
2023-04-17T16:38:38.980Z,3.78
2023-04-17T16:41:06.091Z,3.33
2023-04-17T16:43:33.588Z,3.65
2023-04-17T16:46:05.489Z,3.47
2023-04-17T16:48:38.429Z,3.15
2023-04-17T16:51:06.122Z,3.50
2023-04-17T16:53:33.412Z,3.55
2023-04-17T16:56:00.559Z,3.65
2023-04-17T16:58:27.780Z,2.88
2023-04-17T17:00:54.865Z,2.40
2023-04-17T17:03:22.085Z,2.65
2023-04-17T17:05:49.307Z,2.95
2023-04-17T17:08:16.430Z,2.35
2023-04-17T17:10:43.614Z,2.53
2023-04-17T17:13:10.853Z,2.58
2023-04-17T17:15:37.930Z,2.85
2023-04-17T17:18:05.528Z,2.72
2023-04-17T17:20:32.861Z,2.47
2023-04-17T17:23:00.005Z,2.20
2023-04-17T17:25:27.136Z,2.58
2023-04-17T17:27:54.284Z,2.95
2023-04-17T17:30:21.443Z,3.03
2023-04-17T17:32:48.597Z,2.40
2023-04-17T17:35:15.957Z,2.85
2023-04-17T17:37:43.116Z,3.25
2023-04-17T17:40:10.767Z,3.20
2023-04-17T17:42:37.899Z,3.88
2023-04-17T17:45:06.254Z,3.45
2023-04-17T17:47:33.395Z,3.95
2023-04-17T17:50:00.536Z,4.47
2023-04-17T17:52:27.666Z,3.95
2023-04-17T17:54:54.705Z,4.35
2023-04-17T17:57:21.839Z,3.72
2023-04-17T17:59:49.068Z,4.20
2023-04-17T18:02:16.384Z,4.75
2023-04-17T18:04:43.812Z,4.22
2023-04-17T18:07:11.016Z,3.72
2023-04-17T18:10:47.793Z,3.80
2023-04-17T18:13:14.888Z,3.13
2023-04-17T18:15:42.307Z,2.97
2023-04-17T18:18:09.440Z,2.50
2023-04-17T18:20:40.565Z,2.50
2023-04-17T18:23:07.739Z,3.03
2023-04-17T18:25:36.028Z,2.53
2023-04-17T18:28:03.903Z,3.15
2023-04-17T18:30:31.480Z,3.10
2023-04-17T18:32:58.709Z,2.50
2023-04-17T18:35:25.915Z,2.40
2023-04-17T18:37:53.372Z,3.10
2023-04-17T18:40:20.535Z,3.22
2023-04-17T18:42:47.643Z,3.33
2023-04-17T18:45:16.152Z,3.45
2023-04-17T18:47:43.491Z,3.25
2023-04-17T18:50:11.565Z,3.00
2023-04-17T18:52:43.212Z,3.70
2023-04-17T18:55:12.909Z,3.60
2023-04-17T18:57:44.772Z,3.88
2023-04-17T19:00:12.895Z,3.15
2023-04-17T19:02:40.887Z,3.17
2023-04-17T19:05:08.603Z,2.85
2023-04-17T19:07:35.797Z,2.55
2023-04-17T19:10:03.032Z,2.75
2023-04-17T19:12:30.686Z,3.30
2023-04-17T19:14:58.030Z,3.10
2023-04-17T19:17:25.721Z,2.50
2023-04-17T19:19:53.265Z,2.78
2023-04-17T19:22:20.465Z,2.65
2023-04-17T19:24:50.226Z,2.63
2023-04-17T19:27:17.507Z,2.97
2023-04-17T19:29:44.687Z,3.17
2023-04-17T19:32:12.372Z,2.95
2023-04-17T19:34:39.510Z,2.78
2023-04-17T19:37:06.646Z,2.75
2023-04-17T19:39:33.810Z,2.90
2023-04-17T19:42:01.387Z,3.53
2023-04-17T19:44:28.604Z,3.30
2023-04-17T19:47:28.423Z,2.97
2023-04-17T19:49:55.591Z,2.75
2023-04-17T19:52:23.773Z,3.15
2023-04-17T19:54:51.168Z,3.78
2023-04-17T19:57:18.428Z,3.75
2023-04-17T19:59:45.505Z,3.38
2023-04-17T20:02:12.670Z,3.50
2023-04-17T20:04:39.881Z,3.33
2023-04-17T20:07:07.353Z,4.03
2023-04-17T20:09:34.532Z,3.08
2023-04-17T20:12:01.710Z,3.85
2023-04-17T20:14:28.846Z,3.38
2023-04-17T20:16:56.431Z,3.33
2023-04-17T20:19:24.212Z,3.15
2023-04-17T20:21:51.341Z,4.07
2023-04-17T20:24:18.612Z,3.72
2023-04-17T20:26:45.754Z,4.65
2023-04-17T20:29:13.009Z,4.30
2023-04-17T20:31:40.487Z,3.60
2023-04-17T20:34:07.818Z,4.03
2023-04-17T20:36:34.916Z,4.03
2023-04-17T20:39:02.036Z,5.00
2023-04-17T20:41:29.204Z,4.72
2023-04-17T20:44:00.257Z,4.38
2023-04-17T20:46:28.341Z,4.25
2023-04-17T20:48:55.760Z,4.72
2023-04-17T20:51:27.561Z,4.93
2023-04-17T20:53:55.211Z,5.15
2023-04-17T20:56:23.231Z,5.30
2023-04-17T20:58:50.507Z,5.05
2023-04-17T21:01:17.635Z,4.50
2023-04-17T21:03:45.192Z,4.75
2023-04-17T21:06:12.535Z,5.07
2023-04-17T21:08:39.811Z,5.50
2023-04-17T21:11:07.127Z,4.75
2023-04-17T21:13:34.913Z,4.25
2023-04-17T21:16:02.134Z,3.90
2023-04-17T21:18:29.277Z,4.07
2023-04-17T21:20:56.458Z,4.45
2023-04-17T21:23:23.591Z,4.43
2023-04-17T21:25:53.636Z,4.07
2023-04-17T21:28:21.276Z,3.70
2023-04-17T21:30:48.766Z,3.53
2023-04-17T21:33:16.010Z,3.58
2023-04-17T21:35:43.122Z,3.97
2023-04-17T21:38:10.283Z,4.40
2023-04-17T21:40:48.117Z,3.72
2023-04-17T21:43:17.985Z,4.68
2023-04-17T21:45:45.212Z,3.55
2023-04-17T21:48:15.263Z,3.67
2023-04-17T21:50:43.371Z,4.95
2023-04-17T21:54:19.584Z,5.13
2023-04-17T21:56:46.670Z,4.38
2023-04-17T21:59:13.761Z,4.45
2023-04-17T22:01:41.011Z,4.60
2023-04-17T22:04:08.151Z,4.32
2023-04-17T22:06:36.978Z,4.75
2023-04-17T22:09:05.006Z,4.85
2023-04-17T22:11:32.431Z,4.90
2023-04-17T22:13:59.617Z,4.65
2023-04-17T22:17:35.487Z,4.85
2023-04-17T22:20:02.714Z,4.07
2023-04-17T22:22:29.799Z,5.07
2023-04-17T22:24:56.941Z,5.65
2023-04-17T22:27:24.237Z,5.47
2023-04-17T22:29:51.352Z,4.18
2023-04-17T22:32:18.435Z,5.40
2023-04-17T22:34:49.991Z,5.78
2023-04-17T22:37:18.511Z,4.80
2023-04-17T22:39:45.595Z,4.47
2023-04-17T22:42:12.658Z,4.00
2023-04-17T22:44:39.757Z,4.07
2023-04-17T22:47:06.896Z,4.53
2023-04-17T22:49:38.157Z,3.47
2023-04-17T22:52:06.385Z,3.90
2023-04-17T22:54:36.860Z,5.13
2023-04-17T22:57:04.040Z,4.20
2023-04-17T22:59:31.348Z,4.32
2023-04-17T23:01:58.640Z,4.75
2023-04-17T23:04:25.894Z,4.60
2023-04-17T23:06:52.980Z,5.03
2023-04-17T23:09:20.168Z,3.97
2023-04-17T23:11:47.317Z,4.40
2023-04-17T23:14:14.559Z,3.92
2023-04-17T23:16:41.906Z,4.03
2023-04-17T23:19:09.029Z,4.18
2023-04-17T23:22:08.158Z,4.03
2023-04-17T23:24:35.768Z,3.72
2023-04-17T23:27:03.047Z,4.30
2023-04-17T23:29:30.303Z,4.30
2023-04-17T23:32:29.388Z,4.15
2023-04-17T23:34:56.494Z,4.47
2023-04-17T23:37:23.552Z,4.32
2023-04-17T23:39:50.733Z,5.47
2023-04-17T23:42:17.843Z,4.20
2023-04-17T23:44:44.938Z,3.13
2023-04-17T23:47:13.150Z,3.83
2023-04-17T23:49:41.041Z,4.72
2023-04-17T23:52:08.141Z,5.40
2023-04-17T23:54:35.222Z,4.30
2023-04-17T23:57:02.383Z,4.75
2023-04-17T23:59:29.470Z,4.30
